Time,TemperatureF,DewpointF,PressureIn,WindDirection,WindDirectionDegrees,WindSpeedMPH,WindSpeedGustMPH,Humidity,HourlyPrecipIn,Conditions,Clouds,dailyrainin,SoftwareType,DateUTC
2013-04-07 00:00:00,53.1,50.8,30.28,North,0,0.0,0.0,92,0.00,,,0.00,WUHU216HW,2013-04-07 07:00:00,
2013-04-07 00:05:00,53.1,50.8,30.28,North,0,0.0,0.0,92,0.00,,,0.00,WUHU216HW,2013-04-07 07:05:00,
2013-04-07 00:10:00,52.9,50.6,30.29,North,0,0.0,0.0,92,0.00,,,0.00,WUHU216HW,2013-04-07 07:10:00,
2013-04-07 00:15:00,52.9,50.6,30.29,North,0,0.0,0.0,92,0.00,,,0.00,WUHU216HW,2013-04-07 07:15:00,
2013-04-07 00:20:00,52.9,50.6,30.29,North,0,0.0,0.0,92,0.00,,,0.00,WUHU216HW,2013-04-07 07:20:00,
2013-04-07 00:25:00,52.7,50.4,30.28,North,0,0.0,0.0,92,0.00,,,0.00,WUHU216HW,2013-04-07 07:25:00,
2013-04-07 00:30:00,52.7,50.4,30.28,North,0,0.0,0.0,92,0.00,,,0.00,WUHU216HW,2013-04-07 07:30:00,
2013-04-07 00:35:00,52.7,50.4,30.28,North,0,0.0,0.0,92,0.00,,,0.00,WUHU216HW,2013-04-07 07:35:00,
2013-04-07 00:40:00,52.7,50.4,30.28,North,0,0.0,0.0,92,0.00,,,0.00,WUHU216HW,2013-04-07 07:40:00,
2013-04-07 00:45:00,52.7,50.4,30.28,North,0,0.0,0.0,92,0.00,,,0.00,WUHU216HW,2013-04-07 07:45:00,
2013-04-07 00:50:00,52.6,50.2,30.27,North,0,0.0,0.0,92,0.00,,,0.00,WUHU216HW,2013-04-07 07:50:00,
2013-04-07 00:55:00,52.6,50.2,30.27,North,0,0.0,0.0,92,0.00,,,0.00,WUHU216HW,2013-04-07 07:55:00,
2013-04-07 01:00:00,52.6,50.2,30.27,North,0,0.0,0.0,92,0.00,,,0.00,WUHU216HW,2013-04-07 08:00:00,
2013-04-07 01:06:00,52.6,50.2,30.28,North,0,0.0,0.0,92,0.00,,,0.00,WUHU216HW,2013-04-07 08:06:00,
2013-04-07 01:11:00,52.6,50.2,30.27,North,0,0.0,0.0,92,0.00,,,0.00,WUHU216HW,2013-04-07 08:11:00,
2013-04-07 01:16:00,52.6,50.2,30.28,North,0,0.0,0.0,92,0.00,,,0.00,WUHU216HW,2013-04-07 08:16:00,
2013-04-07 01:21:00,52.6,50.2,30.27,North,0,0.0,0.0,92,0.00,,,0.00,WUHU216HW,2013-04-07 08:21:00,
2013-04-07 01:26:00,52.6,50.2,30.27,North,0,0.0,0.0,92,0.00,,,0.00,WUHU216HW,2013-04-07 08:26:00,
2013-04-07 01:31:00,52.6,50.2,30.27,North,0,0.0,0.0,92,0.00,,,0.00,WUHU216HW,2013-04-07 08:31:00,
2013-04-07 01:36:00,52.4,50.0,30.27,North,0,0.0,0.0,92,0.00,,,0.00,WUHU216HW,2013-04-07 08:36:00,
2013-04-07 01:41:00,52.4,50.0,30.27,North,0,0.0,0.0,92,0.00,,,0.00,WUHU216HW,2013-04-07 08:41:00,
2013-04-07 01:46:00,52.4,50.0,30.27,North,0,0.0,0.0,92,0.00,,,0.00,WUHU216HW,2013-04-07 08:46:00,
2013-04-07 01:51:00,52.4,50.0,30.27,North,0,0.0,0.0,92,0.00,,,0.00,WUHU216HW,2013-04-07 08:51:00,
2013-04-07 01:56:00,52.4,50.0,30.27,North,0,0.0,0.0,92,0.00,,,0.00,WUHU216HW,2013-04-07 08:56:00,
2013-04-07 02:01:00,52.4,50.0,30.27,North,0,0.0,0.0,92,0.00,,,0.00,WUHU216HW,2013-04-07 09:01:00,
2013-04-07 02:06:00,52.4,50.0,30.27,North,0,0.0,0.0,92,0.00,,,0.00,WUHU216HW,2013-04-07 09:06:00,
2013-04-07 02:11:00,52.4,50.0,30.26,North,0,0.0,0.0,92,0.00,,,0.00,WUHU216HW,2013-04-07 09:11:00,
2013-04-07 02:16:00,52.6,50.0,30.27,North,0,0.0,0.0,91,0.00,,,0.00,WUHU216HW,2013-04-07 09:16:00,
2013-04-07 02:21:00,52.6,50.0,30.27,North,0,0.0,0.0,91,0.00,,,0.00,WUHU216HW,2013-04-07 09:21:00,
2013-04-07 02:27:00,52.6,50.0,30.27,North,0,0.0,0.0,91,0.00,,,0.00,WUHU216HW,2013-04-07 09:27:00,
2013-04-07 02:32:00,52.6,50.0,30.27,North,0,0.0,0.0,91,0.00,,,0.00,WUHU216HW,2013-04-07 09:32:00,
2013-04-07 02:37:00,52.6,50.0,30.27,North,0,0.0,0.0,91,0.00,,,0.00,WUHU216HW,2013-04-07 09:37:00,
2013-04-07 02:42:00,52.7,50.1,30.27,North,0,0.0,0.0,91,0.00,,,0.00,WUHU216HW,2013-04-07 09:42:00,
2013-04-07 02:48:00,52.7,50.1,30.26,North,0,0.0,0.0,91,0.00,,,0.00,WUHU216HW,2013-04-07 09:48:00,
2013-04-07 02:53:00,52.7,50.1,30.26,North,0,0.0,0.0,91,0.00,,,0.00,WUHU216HW,2013-04-07 09:53:00,
2013-04-07 02:58:00,52.7,50.1,30.26,North,0,0.0,0.0,91,0.00,,,0.00,WUHU216HW,2013-04-07 09:58:00,
2013-04-07 03:03:00,52.7,50.1,30.26,North,0,0.0,0.0,91,0.00,,,0.00,WUHU216HW,2013-04-07 10:03:00,
2013-04-07 03:08:00,52.7,50.1,30.26,North,0,0.0,0.0,91,0.00,,,0.00,WUHU216HW,2013-04-07 10:08:00,
2013-04-07 03:13:00,52.7,50.1,30.25,North,0,0.0,0.0,91,0.00,,,0.00,WUHU216HW,2013-04-07 10:13:00,
2013-04-07 03:18:00,52.7,50.1,30.25,North,0,0.0,0.0,91,0.00,,,0.00,WUHU216HW,2013-04-07 10:18:00,
2013-04-07 03:23:00,52.6,50.0,30.25,North,0,0.0,0.0,91,0.00,,,0.00,WUHU216HW,2013-04-07 10:23:00,
2013-04-07 03:28:00,52.6,50.0,30.25,North,0,0.0,0.0,91,0.00,,,0.00,WUHU216HW,2013-04-07 10:28:00,
2013-04-07 03:33:00,52.6,50.0,30.25,North,0,0.0,0.0,91,0.00,,,0.00,WUHU216HW,2013-04-07 10:33:00,
2013-04-07 03:38:00,52.6,50.0,30.25,North,0,0.0,0.0,91,0.00,,,0.00,WUHU216HW,2013-04-07 10:38:00,
2013-04-07 03:43:00,52.4,49.8,30.25,North,0,0.0,0.0,91,0.00,,,0.00,WUHU216HW,2013-04-07 10:43:00,
2013-04-07 03:48:00,52.4,49.8,30.25,North,0,0.0,0.0,91,0.00,,,0.00,WUHU216HW,2013-04-07 10:48:00,
2013-04-07 03:53:00,52.2,49.6,30.25,North,0,0.0,0.0,91,0.00,,,0.00,WUHU216HW,2013-04-07 10:53:00,
2013-04-07 03:58:00,52.2,49.6,30.25,North,0,0.0,0.0,91,0.00,,,0.00,WUHU216HW,2013-04-07 10:58:00,
2013-04-07 04:03:00,52.0,49.4,30.24,North,0,0.0,0.0,91,0.00,,,0.00,WUHU216HW,2013-04-07 11:03:00,
2013-04-07 04:08:00,51.8,49.2,30.24,North,0,0.0,0.0,91,0.00,,,0.00,WUHU216HW,2013-04-07 11:08:00,
2013-04-07 04:13:00,51.7,48.8,30.23,North,0,0.0,0.0,90,0.00,,,0.00,WUHU216HW,2013-04-07 11:13:00,
2013-04-07 04:18:00,51.5,48.6,30.23,North,0,0.0,0.0,90,0.00,,,0.00,WUHU216HW,2013-04-07 11:18:00,
2013-04-07 04:23:00,51.5,48.6,30.23,North,0,0.0,0.0,90,0.00,,,0.00,WUHU216HW,2013-04-07 11:23:00,
2013-04-07 04:28:00,51.5,48.9,30.23,North,0,0.0,0.0,91,0.00,,,0.00,WUHU216HW,2013-04-07 11:28:00,
2013-04-07 04:33:00,51.3,48.7,30.23,North,0,0.0,0.0,91,0.00,,,0.00,WUHU216HW,2013-04-07 11:33:00,
2013-04-07 04:38:00,51.1,48.5,30.23,North,0,0.0,0.0,91,0.00,,,0.00,WUHU216HW,2013-04-07 11:38:00,
2013-04-07 04:43:00,51.1,48.5,30.22,North,0,0.0,0.0,91,0.00,,,0.00,WUHU216HW,2013-04-07 11:43:00,
2013-04-07 04:48:00,51.3,48.7,30.22,North,0,0.0,0.0,91,0.00,,,0.00,WUHU216HW,2013-04-07 11:48:00,
2013-04-07 04:53:00,51.5,48.9,30.23,North,0,0.0,0.0,91,0.00,,,0.00,WUHU216HW,2013-04-07 11:53:00,
2013-04-07 04:58:00,51.5,48.9,30.22,North,0,0.0,0.0,91,0.00,,,0.00,WUHU216HW,2013-04-07 11:58:00,
2013-04-07 05:03:00,51.5,48.9,30.22,North,0,0.0,0.0,91,0.00,,,0.00,WUHU216HW,2013-04-07 12:03:00,
2013-04-07 05:08:00,51.5,48.9,30.22,North,0,0.0,0.0,91,0.00,,,0.00,WUHU216HW,2013-04-07 12:08:00,
2013-04-07 05:13:00,51.5,48.9,30.23,North,0,0.0,0.0,91,0.00,,,0.00,WUHU216HW,2013-04-07 12:13:00,
2013-04-07 05:18:00,51.5,48.9,30.23,North,0,0.0,0.0,91,0.00,,,0.00,WUHU216HW,2013-04-07 12:18:00,
2013-04-07 05:23:00,51.5,48.9,30.23,North,0,0.0,0.0,91,0.00,,,0.00,WUHU216HW,2013-04-07 12:23:00,
2013-04-07 05:28:00,51.5,48.9,30.23,North,0,0.0,0.0,91,0.00,,,0.00,WUHU216HW,2013-04-07 12:28:00,
2013-04-07 05:33:00,51.5,48.9,30.23,North,0,0.0,0.0,91,0.00,,,0.00,WUHU216HW,2013-04-07 12:33:00,
2013-04-07 05:38:00,51.5,48.9,30.23,North,0,0.0,0.0,91,0.00,,,0.00,WUHU216HW,2013-04-07 12:38:00,
2013-04-07 05:43:00,51.5,48.9,30.23,North,0,0.0,0.0,91,0.00,,,0.00,WUHU216HW,2013-04-07 12:43:00,
2013-04-07 05:48:00,51.5,48.9,30.23,North,0,0.0,0.0,91,0.00,,,0.00,WUHU216HW,2013-04-07 12:48:00,
2013-04-07 05:53:00,51.5,48.9,30.23,North,0,0.0,0.0,91,0.00,,,0.00,WUHU216HW,2013-04-07 12:53:00,
2013-04-07 05:58:00,51.5,48.9,30.23,North,0,0.0,0.0,91,0.00,,,0.00,WUHU216HW,2013-04-07 12:58:00,
2013-04-07 06:03:00,51.3,48.7,30.23,North,0,0.0,0.0,91,0.00,,,0.00,WUHU216HW,2013-04-07 13:03:00,
2013-04-07 06:08:00,51.3,48.7,30.23,North,0,0.0,0.0,91,0.00,,,0.00,WUHU216HW,2013-04-07 13:08:00,
2013-04-07 06:13:00,51.3,48.7,30.23,North,0,0.0,0.0,91,0.00,,,0.00,WUHU216HW,2013-04-07 13:13:00,
2013-04-07 06:18:00,51.3,48.7,30.23,North,0,0.0,0.0,91,0.00,,,0.00,WUHU216HW,2013-04-07 13:18:00,
2013-04-07 06:23:00,51.5,48.9,30.23,North,0,0.0,0.0,91,0.00,,,0.00,WUHU216HW,2013-04-07 13:23:00,
2013-04-07 06:28:00,51.3,48.7,30.22,North,0,0.0,0.0,91,0.00,,,0.00,WUHU216HW,2013-04-07 13:28:00,
2013-04-07 06:33:00,51.1,48.5,30.23,North,0,0.0,0.0,91,0.00,,,0.00,WUHU216HW,2013-04-07 13:33:00,
2013-04-07 06:38:00,50.9,48.3,30.23,North,0,0.0,0.0,91,0.00,,,0.00,WUHU216HW,2013-04-07 13:38:00,
2013-04-07 06:44:00,50.8,48.2,30.22,North,0,0.0,0.0,91,0.00,,,0.00,WUHU216HW,2013-04-07 13:44:00,
2013-04-07 06:49:00,50.6,48.0,30.23,North,0,0.0,0.0,91,0.00,,,0.00,WUHU216HW,2013-04-07 13:49:00,
2013-04-07 06:54:00,50.6,48.0,30.22,North,0,0.0,0.0,91,0.00,,,0.00,WUHU216HW,2013-04-07 13:54:00,
2013-04-07 06:59:00,50.8,48.2,30.22,North,0,0.0,0.0,91,0.00,,,0.00,WUHU216HW,2013-04-07 13:59:00,
2013-04-07 07:04:00,50.6,48.0,30.22,North,0,0.0,0.0,91,0.00,,,0.00,WUHU216HW,2013-04-07 14:04:00,
2013-04-07 07:09:00,50.8,48.2,30.23,North,0,0.0,0.0,91,0.00,,,0.00,WUHU216HW,2013-04-07 14:09:00,
2013-04-07 07:14:00,50.8,48.2,30.23,North,0,0.0,0.0,91,0.00,,,0.00,WUHU216HW,2013-04-07 14:14:00,
2013-04-07 07:19:00,50.9,48.3,30.24,North,0,0.0,0.0,91,0.00,,,0.00,WUHU216HW,2013-04-07 14:19:00,
2013-04-07 07:24:00,51.1,48.5,30.24,North,0,0.0,0.0,91,0.00,,,0.00,WUHU216HW,2013-04-07 14:24:00,
2013-04-07 07:29:00,51.5,48.9,30.24,North,0,0.0,0.0,91,0.00,,,0.00,WUHU216HW,2013-04-07 14:29:00,
2013-04-07 07:34:00,51.8,49.5,30.24,North,0,0.0,0.0,92,0.00,,,0.00,WUHU216HW,2013-04-07 14:34:00,
2013-04-07 07:39:00,52.2,49.9,30.24,North,0,0.0,0.0,92,0.00,,,0.00,WUHU216HW,2013-04-07 14:39:00,
2013-04-07 07:44:00,52.4,50.0,30.24,North,0,0.0,0.0,92,0.00,,,0.00,WUHU216HW,2013-04-07 14:44:00,
2013-04-07 07:52:00,52.7,50.4,30.24,North,0,0.0,0.0,92,0.00,,,0.00,WUHU216HW,2013-04-07 14:52:00,
2013-04-07 08:01:00,53.3,50.9,30.25,North,0,0.0,0.0,92,0.00,,,0.00,WUHU216HW,2013-04-07 15:01:00,
2013-04-07 08:06:00,53.6,51.0,30.24,North,0,0.0,0.0,91,0.00,,,0.00,WUHU216HW,2013-04-07 15:06:00,
2013-04-07 08:11:00,54.4,52.0,30.24,North,0,0.0,0.0,92,0.00,,,0.00,WUHU216HW,2013-04-07 15:11:00,
2013-04-07 08:17:00,55.6,52.7,30.24,North,0,0.0,0.0,90,0.00,,,0.00,WUHU216HW,2013-04-07 15:17:00,
2013-04-07 08:22:00,56.3,53.1,30.24,North,0,0.0,0.0,89,0.00,,,0.00,WUHU216HW,2013-04-07 15:22:00,
2013-04-07 08:27:00,57.8,54.3,30.24,North,0,0.0,0.0,88,0.00,,,0.00,WUHU216HW,2013-04-07 15:27:00,
2013-04-07 08:32:00,58.5,55.0,30.24,North,0,0.0,0.0,88,0.00,,,0.00,WUHU216HW,2013-04-07 15:32:00,
2013-04-07 08:37:00,59.4,55.5,30.24,North,0,0.0,0.0,87,0.00,,,0.00,WUHU216HW,2013-04-07 15:37:00,
2013-04-07 08:42:00,60.1,55.3,30.24,North,0,0.0,0.0,84,0.00,,,0.00,WUHU216HW,2013-04-07 15:42:00,
2013-04-07 08:47:00,61.6,56.7,30.24,North,0,0.0,0.0,84,0.00,,,0.00,WUHU216HW,2013-04-07 15:47:00,
2013-04-07 08:52:00,61.9,55.4,30.24,North,0,0.0,0.0,79,0.00,,,0.00,WUHU216HW,2013-04-07 15:52:00,
2013-04-07 08:57:00,62.3,56.0,30.24,North,0,0.0,0.0,80,0.00,,,0.00,WUHU216HW,2013-04-07 15:57:00,
2013-04-07 09:02:00,63.4,56.7,30.23,North,0,0.0,0.0,79,0.00,,,0.00,WUHU216HW,2013-04-07 16:02:00,
2013-04-07 09:07:00,64.4,57.1,30.23,North,0,0.0,0.0,77,0.00,,,0.00,WUHU216HW,2013-04-07 16:07:00,
2013-04-07 09:12:00,65.3,58.0,30.23,North,0,0.0,0.0,77,0.00,,,0.00,WUHU216HW,2013-04-07 16:12:00,
2013-04-07 09:17:00,66.6,59.1,30.23,North,0,0.0,0.0,77,0.00,,,0.00,WUHU216HW,2013-04-07 16:17:00,
2013-04-07 09:22:00,67.9,59.3,30.23,North,0,0.0,0.0,74,0.00,,,0.00,WUHU216HW,2013-04-07 16:22:00,
2013-04-07 09:27:00,68.8,58.6,30.23,North,0,0.0,0.0,70,0.00,,,0.00,WUHU216HW,2013-04-07 16:27:00,
2013-04-07 09:32:00,67.1,54.6,30.23,North,0,0.0,0.0,64,0.00,,,0.00,WUHU216HW,2013-04-07 16:32:00,
2013-04-07 09:37:00,66.2,55.7,30.23,North,0,0.0,0.0,69,0.00,,,0.00,WUHU216HW,2013-04-07 16:37:00,
2013-04-07 09:42:00,65.7,54.5,30.22,North,0,0.0,0.0,67,0.00,,,0.00,WUHU216HW,2013-04-07 16:42:00,
2013-04-07 09:47:00,64.6,53.4,30.23,North,0,0.0,0.0,67,0.00,,,0.00,WUHU216HW,2013-04-07 16:47:00,
2013-04-07 09:52:00,63.9,53.6,30.23,North,0,0.0,0.0,69,0.00,,,0.00,WUHU216HW,2013-04-07 16:52:00,
2013-04-07 09:57:00,64.1,54.5,30.23,North,0,0.0,0.0,71,0.00,,,0.00,WUHU216HW,2013-04-07 16:57:00,
2013-04-07 10:02:00,64.4,54.9,30.23,North,0,0.0,0.0,71,0.00,,,0.00,WUHU216HW,2013-04-07 17:02:00,
2013-04-07 10:08:00,64.8,54.9,30.23,North,0,0.0,0.0,70,0.00,,,0.00,WUHU216HW,2013-04-07 17:08:00,
2013-04-07 10:13:00,65.2,54.4,30.23,North,0,0.0,0.0,68,0.00,,,0.00,WUHU216HW,2013-04-07 17:13:00,
2013-04-07 10:18:00,66.4,55.1,30.23,North,0,0.0,0.0,67,0.00,,,0.00,WUHU216HW,2013-04-07 17:18:00,
2013-04-07 10:23:00,66.6,54.5,30.23,North,0,0.0,0.0,65,0.00,,,0.00,WUHU216HW,2013-04-07 17:23:00,
2013-04-07 10:28:00,66.2,53.6,30.23,North,0,0.0,0.0,64,0.00,,,0.00,WUHU216HW,2013-04-07 17:28:00,
2013-04-07 10:33:00,66.1,53.9,30.23,North,0,0.0,0.0,65,0.00,,,0.00,WUHU216HW,2013-04-07 17:33:00,
2013-04-07 10:38:00,67.0,55.6,30.23,North,0,0.0,0.0,67,0.00,,,0.00,WUHU216HW,2013-04-07 17:38:00,
2013-04-07 10:43:00,68.0,55.8,30.23,North,0,0.0,0.0,65,0.00,,,0.00,WUHU216HW,2013-04-07 17:43:00,
2013-04-07 10:48:00,67.1,54.1,30.23,North,0,0.0,0.0,63,0.00,,,0.00,WUHU216HW,2013-04-07 17:48:00,
2013-04-07 10:53:00,66.4,54.3,30.23,North,0,0.0,0.0,65,0.00,,,0.00,WUHU216HW,2013-04-07 17:53:00,
2013-04-07 10:58:00,66.8,55.0,30.24,North,0,0.0,0.0,66,0.00,,,0.00,WUHU216HW,2013-04-07 17:58:00,
2013-04-07 11:03:00,67.0,54.8,30.24,North,0,0.0,0.0,65,0.00,,,0.00,WUHU216HW,2013-04-07 18:03:00,
2013-04-07 11:08:00,67.3,54.7,30.24,North,0,0.0,0.0,64,0.00,,,0.00,WUHU216HW,2013-04-07 18:08:00,
2013-04-07 11:13:00,67.0,54.4,30.24,North,0,0.0,0.0,64,0.00,,,0.00,WUHU216HW,2013-04-07 18:13:00,
2013-04-07 11:18:00,67.3,54.7,30.24,North,0,0.0,0.0,64,0.00,,,0.00,WUHU216HW,2013-04-07 18:18:00,
2013-04-07 11:23:00,67.9,54.8,30.23,North,0,0.0,0.0,63,0.00,,,0.00,WUHU216HW,2013-04-07 18:23:00,
2013-04-07 11:28:00,67.7,53.3,30.23,North,0,0.0,0.0,60,0.00,,,0.00,WUHU216HW,2013-04-07 18:28:00,
2013-04-07 11:33:00,66.6,53.7,30.23,North,0,0.0,0.0,63,0.00,,,0.00,WUHU216HW,2013-04-07 18:33:00,
2013-04-07 11:38:00,66.6,53.7,30.22,North,0,0.0,0.0,63,0.00,,,0.00,WUHU216HW,2013-04-07 18:38:00,
2013-04-07 11:43:00,66.6,53.7,30.23,North,0,0.0,0.0,63,0.00,,,0.00,WUHU216HW,2013-04-07 18:43:00,
2013-04-07 11:48:00,66.4,53.0,30.23,North,0,0.0,0.0,62,0.00,,,0.00,WUHU216HW,2013-04-07 18:48:00,
2013-04-07 11:53:00,66.2,54.1,30.23,North,0,0.0,0.0,65,0.00,,,0.00,WUHU216HW,2013-04-07 18:53:00,
2013-04-07 11:58:00,66.2,54.1,30.22,North,0,0.0,0.0,65,0.00,,,0.00,WUHU216HW,2013-04-07 18:58:00,
2013-04-07 12:03:00,66.2,53.6,30.23,North,0,0.0,0.0,64,0.00,,,0.00,WUHU216HW,2013-04-07 19:03:00,
2013-04-07 12:08:00,65.9,53.7,30.22,North,0,0.0,0.0,65,0.00,,,0.00,WUHU216HW,2013-04-07 19:08:00,
2013-04-07 12:13:00,65.7,54.0,30.22,North,0,0.0,0.0,66,0.00,,,0.00,WUHU216HW,2013-04-07 19:13:00,
2013-04-07 12:18:00,65.3,53.6,30.22,North,0,0.0,0.0,66,0.00,,,0.00,WUHU216HW,2013-04-07 19:18:00,
2013-04-07 12:23:00,65.9,54.5,30.22,North,0,0.0,0.0,67,0.00,,,0.00,WUHU216HW,2013-04-07 19:23:00,
2013-04-07 12:28:00,65.9,54.5,30.22,North,0,0.0,0.0,67,0.00,,,0.00,WUHU216HW,2013-04-07 19:28:00,
2013-04-07 12:33:00,65.9,54.2,30.21,North,0,0.0,0.0,66,0.00,,,0.00,WUHU216HW,2013-04-07 19:33:00,
2013-04-07 12:38:00,65.5,54.3,30.21,North,0,0.0,0.0,67,0.00,,,0.00,WUHU216HW,2013-04-07 19:38:00,
2013-04-07 12:43:00,65.3,54.1,30.21,North,0,0.0,0.0,67,0.00,,,0.00,WUHU216HW,2013-04-07 19:43:00,
2013-04-07 12:48:00,64.8,54.0,30.21,North,0,0.0,0.0,68,0.00,,,0.00,WUHU216HW,2013-04-07 19:48:00,
2013-04-07 12:54:00,64.3,53.9,30.21,North,0,0.0,0.0,69,0.00,,,0.00,WUHU216HW,2013-04-07 19:54:00,
2013-04-07 12:59:00,64.1,54.2,30.21,North,0,0.0,0.0,70,0.00,,,0.00,WUHU216HW,2013-04-07 19:59:00,
2013-04-07 13:04:00,64.3,54.4,30.20,North,0,0.0,0.0,70,0.00,,,0.00,WUHU216HW,2013-04-07 20:04:00,
2013-04-07 13:09:00,64.4,54.5,30.20,North,0,0.0,0.0,70,0.00,,,0.00,WUHU216HW,2013-04-07 20:09:00,
2013-04-07 13:14:00,64.4,54.1,30.19,North,0,0.0,0.0,69,0.00,,,0.00,WUHU216HW,2013-04-07 20:14:00,
2013-04-07 13:19:00,64.3,54.7,30.19,North,0,0.0,0.0,71,0.00,,,0.00,WUHU216HW,2013-04-07 20:19:00,
2013-04-07 13:25:00,64.8,54.9,30.19,North,0,0.0,0.0,70,0.00,,,0.00,WUHU216HW,2013-04-07 20:25:00,
2013-04-07 13:30:00,64.6,54.7,30.20,North,0,0.0,0.0,70,0.00,,,0.00,WUHU216HW,2013-04-07 20:30:00,
2013-04-07 13:35:00,64.1,54.5,30.19,North,0,0.0,0.0,71,0.00,,,0.00,WUHU216HW,2013-04-07 20:35:00,
2013-04-07 13:40:00,64.3,55.1,30.19,North,0,0.0,0.0,72,0.00,,,0.00,WUHU216HW,2013-04-07 20:40:00,
2013-04-07 13:45:00,64.4,54.9,30.18,North,0,0.0,0.0,71,0.00,,,0.00,WUHU216HW,2013-04-07 20:45:00,
2013-04-07 13:50:00,65.0,55.8,30.18,North,0,0.0,0.0,72,0.00,,,0.00,WUHU216HW,2013-04-07 20:50:00,
2013-04-07 13:55:00,65.7,56.1,30.18,North,0,0.0,0.0,71,0.00,,,0.00,WUHU216HW,2013-04-07 20:55:00,
2013-04-07 14:00:00,65.0,55.0,30.17,North,0,0.0,0.0,70,0.00,,,0.00,WUHU216HW,2013-04-07 21:00:00,
2013-04-07 14:05:00,64.6,55.1,30.17,North,0,0.0,0.0,71,0.00,,,0.00,WUHU216HW,2013-04-07 21:05:00,
2013-04-07 14:10:00,63.5,54.4,30.17,North,0,0.0,0.0,72,0.00,,,0.00,WUHU216HW,2013-04-07 21:10:00,
2013-04-07 14:15:00,63.0,54.2,30.17,North,0,0.0,0.0,73,0.00,,,0.00,WUHU216HW,2013-04-07 21:15:00,
2013-04-07 14:20:00,62.8,54.4,30.17,North,0,0.0,0.0,74,0.00,,,0.00,WUHU216HW,2013-04-07 21:20:00,
2013-04-07 14:25:00,62.5,53.6,30.17,North,0,0.0,0.0,73,0.00,,,0.00,WUHU216HW,2013-04-07 21:25:00,
2013-04-07 14:30:00,62.3,53.8,30.17,North,0,0.0,0.0,74,0.00,,,0.00,WUHU216HW,2013-04-07 21:30:00,
2013-04-07 14:35:00,62.3,53.8,30.17,North,0,0.0,0.0,74,0.00,,,0.00,WUHU216HW,2013-04-07 21:35:00,
2013-04-07 14:40:00,61.9,53.9,30.16,North,0,0.0,0.0,75,0.00,,,0.00,WUHU216HW,2013-04-07 21:40:00,
2013-04-07 14:45:00,61.6,53.9,30.15,North,0,0.0,0.0,76,0.00,,,0.00,WUHU216HW,2013-04-07 21:45:00,
2013-04-07 14:50:00,61.6,53.9,30.15,North,0,0.0,0.0,76,0.00,,,0.00,WUHU216HW,2013-04-07 21:50:00,
2013-04-07 14:55:00,61.7,54.1,30.15,North,0,0.0,0.0,76,0.00,,,0.00,WUHU216HW,2013-04-07 21:55:00,
2013-04-07 15:01:00,61.9,54.3,30.15,North,0,0.0,0.0,76,0.00,,,0.00,WUHU216HW,2013-04-07 22:01:00,
2013-04-07 15:06:00,61.7,54.1,30.15,North,0,0.0,0.0,76,0.00,,,0.00,WUHU216HW,2013-04-07 22:06:00,
2013-04-07 15:11:00,61.4,54.1,30.14,North,0,0.0,0.0,77,0.00,,,0.00,WUHU216HW,2013-04-07 22:11:00,
2013-04-07 15:16:00,61.2,54.0,30.14,North,0,0.0,0.0,77,0.00,,,0.00,WUHU216HW,2013-04-07 22:16:00,
2013-04-07 15:22:00,61.6,54.3,30.14,North,0,0.0,0.0,77,0.00,,,0.00,WUHU216HW,2013-04-07 22:22:00,
2013-04-07 15:27:00,61.0,54.2,30.14,North,0,0.0,0.0,78,0.00,,,0.00,WUHU216HW,2013-04-07 22:27:00,
2013-04-07 15:32:00,60.8,54.0,30.14,North,0,0.0,0.0,78,0.00,,,0.00,WUHU216HW,2013-04-07 22:32:00,
2013-04-07 15:37:00,60.8,54.4,30.14,North,0,0.0,0.0,79,0.00,,,0.00,WUHU216HW,2013-04-07 22:37:00,
2013-04-07 15:42:00,61.2,54.7,30.14,North,0,0.0,0.0,79,0.00,,,0.00,WUHU216HW,2013-04-07 22:42:00,
2013-04-07 15:47:00,61.4,54.5,30.14,North,0,0.0,0.0,78,0.00,,,0.00,WUHU216HW,2013-04-07 22:47:00,
2013-04-07 15:52:00,61.4,54.5,30.13,North,0,0.0,0.0,78,0.00,,,0.00,WUHU216HW,2013-04-07 22:52:00,
2013-04-07 15:57:00,61.4,54.5,30.14,North,0,0.0,0.0,78,0.00,,,0.00,WUHU216HW,2013-04-07 22:57:00,
2013-04-07 16:02:00,61.2,54.7,30.14,North,0,0.0,0.0,79,0.00,,,0.00,WUHU216HW,2013-04-07 23:02:00,
2013-04-07 16:07:00,61.2,54.7,30.14,North,0,0.0,0.0,79,0.00,,,0.00,WUHU216HW,2013-04-07 23:07:00,
2013-04-07 16:12:00,61.4,54.8,30.14,North,0,0.0,0.0,79,0.00,,,0.00,WUHU216HW,2013-04-07 23:12:00,
2013-04-07 16:17:00,60.8,54.4,30.15,North,0,0.0,0.0,79,0.00,,,0.00,WUHU216HW,2013-04-07 23:17:00,
2013-04-07 16:22:00,60.7,54.2,30.14,North,0,0.0,0.0,79,0.00,,,0.00,WUHU216HW,2013-04-07 23:22:00,
2013-04-07 16:27:00,61.0,54.6,30.13,North,0,0.0,0.0,79,0.00,,,0.00,WUHU216HW,2013-04-07 23:27:00,
2013-04-07 16:32:00,61.2,54.4,30.12,North,0,0.0,0.0,78,0.00,,,0.00,WUHU216HW,2013-04-07 23:32:00,
2013-04-07 16:37:00,61.0,54.2,30.13,North,0,0.0,0.0,78,0.00,,,0.00,WUHU216HW,2013-04-07 23:37:00,
2013-04-07 16:42:00,61.2,54.4,30.13,North,0,0.0,0.0,78,0.00,,,0.00,WUHU216HW,2013-04-07 23:42:00,
2013-04-07 16:47:00,61.2,54.4,30.13,North,0,0.0,0.0,78,0.00,,,0.00,WUHU216HW,2013-04-07 23:47:00,
2013-04-07 16:52:00,61.2,54.0,30.12,North,0,0.0,0.0,77,0.00,,,0.00,WUHU216HW,2013-04-07 23:52:00,
2013-04-07 16:57:00,60.8,53.3,30.12,North,0,0.0,0.0,76,0.00,,,0.00,WUHU216HW,2013-04-07 23:57:00,
2013-04-07 17:02:00,60.5,53.3,30.12,North,0,0.0,0.0,77,0.00,,,0.00,WUHU216HW,2013-04-08 00:02:00,
2013-04-07 17:07:00,60.5,53.3,30.12,North,0,0.0,0.0,77,0.00,,,0.00,WUHU216HW,2013-04-08 00:07:00,
2013-04-07 17:12:00,60.3,52.7,30.12,North,0,0.0,0.0,76,0.00,,,0.00,WUHU216HW,2013-04-08 00:12:00,
2013-04-07 17:17:00,59.6,52.4,30.12,North,0,0.0,0.0,77,0.00,,,0.00,WUHU216HW,2013-04-08 00:17:00,
2013-04-07 17:22:00,59.2,52.7,30.11,North,0,0.0,0.0,79,0.00,,,0.00,WUHU216HW,2013-04-08 00:22:00,
2013-04-07 17:27:00,58.7,52.6,30.11,North,0,0.0,0.0,80,0.00,,,0.00,WUHU216HW,2013-04-08 00:27:00,
2013-04-07 17:32:00,58.3,52.2,30.10,North,0,0.0,0.0,80,0.00,,,0.00,WUHU216HW,2013-04-08 00:32:00,
2013-04-07 17:37:00,58.1,52.4,30.10,North,0,0.0,0.0,81,0.00,,,0.00,WUHU216HW,2013-04-08 00:37:00,
2013-04-07 17:42:00,58.0,52.2,30.10,North,0,0.0,0.0,81,0.00,,,0.00,WUHU216HW,2013-04-08 00:42:00,
2013-04-07 17:47:00,57.6,52.1,30.10,North,0,0.0,0.0,82,0.00,,,0.00,WUHU216HW,2013-04-08 00:47:00,
2013-04-07 17:52:00,57.2,51.8,30.10,North,0,0.0,0.0,82,0.00,,,0.00,WUHU216HW,2013-04-08 00:52:00,
2013-04-07 17:57:00,56.9,51.8,30.10,North,0,0.0,0.0,83,0.00,,,0.00,WUHU216HW,2013-04-08 00:57:00,
2013-04-07 18:02:00,57.1,51.9,30.10,North,0,0.0,0.0,83,0.00,,,0.00,WUHU216HW,2013-04-08 01:02:00,
2013-04-07 18:07:00,57.1,51.3,30.10,North,0,0.0,0.0,81,0.00,,,0.00,WUHU216HW,2013-04-08 01:07:00,
2013-04-07 18:12:00,56.9,51.1,30.10,North,0,0.0,0.0,81,0.00,,,0.00,WUHU216HW,2013-04-08 01:12:00,
2013-04-07 18:17:00,56.9,51.1,30.10,North,0,0.0,0.0,81,0.00,,,0.00,WUHU216HW,2013-04-08 01:17:00,
2013-04-07 18:22:00,57.1,51.3,30.10,North,0,0.0,0.0,81,0.00,,,0.00,WUHU216HW,2013-04-08 01:22:00,
2013-04-07 18:28:00,57.4,51.3,30.10,North,0,0.0,0.0,80,0.00,,,0.00,WUHU216HW,2013-04-08 01:28:00,
2013-04-07 18:33:00,57.2,51.1,30.10,North,0,0.0,0.0,80,0.00,,,0.00,WUHU216HW,2013-04-08 01:33:00,
2013-04-07 18:38:00,57.1,50.9,30.10,North,0,0.0,0.0,80,0.00,,,0.00,WUHU216HW,2013-04-08 01:38:00,
2013-04-07 18:43:00,56.7,51.0,30.10,North,0,0.0,0.0,81,0.00,,,0.00,WUHU216HW,2013-04-08 01:43:00,
2013-04-07 18:48:00,56.3,50.6,30.10,North,0,0.0,0.0,81,0.00,,,0.00,WUHU216HW,2013-04-08 01:48:00,
2013-04-07 18:53:00,55.8,50.3,30.09,North,0,0.0,0.0,82,0.00,,,0.00,WUHU216HW,2013-04-08 01:53:00,
2013-04-07 18:58:00,55.4,50.0,30.09,North,0,0.0,0.0,82,0.00,,,0.00,WUHU216HW,2013-04-08 01:58:00,
2013-04-07 19:03:00,55.3,49.8,30.10,North,0,0.0,0.0,82,0.00,,,0.00,WUHU216HW,2013-04-08 02:03:00,
2013-04-07 19:08:00,55.1,49.7,30.10,North,0,0.0,0.0,82,0.00,,,0.00,WUHU216HW,2013-04-08 02:08:00,
2013-04-07 19:13:00,54.7,49.6,30.09,North,0,0.0,0.0,83,0.00,,,0.00,WUHU216HW,2013-04-08 02:13:00,
2013-04-07 19:18:00,54.4,49.3,30.09,North,0,0.0,0.0,83,0.00,,,0.00,WUHU216HW,2013-04-08 02:18:00,
2013-04-07 19:23:00,54.2,49.4,30.09,North,0,0.0,0.0,84,0.00,,,0.00,WUHU216HW,2013-04-08 02:23:00,
2013-04-07 19:28:00,53.8,49.1,30.09,North,0,0.0,0.0,84,0.00,,,0.00,WUHU216HW,2013-04-08 02:28:00,
2013-04-07 19:33:00,53.6,49.0,30.10,North,0,0.0,0.0,84,0.00,,,0.00,WUHU216HW,2013-04-08 02:33:00,
2013-04-07 19:38:00,53.5,49.1,30.09,North,0,0.0,0.0,85,0.00,,,0.00,WUHU216HW,2013-04-08 02:38:00,
2013-04-07 19:43:00,53.3,48.9,30.09,North,0,0.0,0.0,85,0.00,,,0.00,WUHU216HW,2013-04-08 02:43:00,
2013-04-07 19:48:00,53.3,48.9,30.08,North,0,0.0,0.0,85,0.00,,,0.00,WUHU216HW,2013-04-08 02:48:00,
2013-04-07 19:54:00,53.1,48.4,30.08,North,0,0.0,0.0,84,0.00,,,0.00,WUHU216HW,2013-04-08 02:54:00,
2013-04-07 19:59:00,53.1,48.1,30.08,North,0,0.0,0.0,83,0.00,,,0.00,WUHU216HW,2013-04-08 02:59:00,
2013-04-07 20:04:00,52.9,47.6,30.08,North,0,0.0,0.0,82,0.00,,,0.00,WUHU216HW,2013-04-08 03:04:00,
2013-04-07 20:09:00,52.9,47.6,30.07,North,0,0.0,0.0,82,0.00,,,0.00,WUHU216HW,2013-04-08 03:09:00,
2013-04-07 20:14:00,52.9,47.6,30.07,North,0,0.0,0.0,82,0.00,,,0.00,WUHU216HW,2013-04-08 03:14:00,
2013-04-07 20:19:00,52.9,47.9,30.08,North,0,0.0,0.0,83,0.00,,,0.00,WUHU216HW,2013-04-08 03:19:00,
2013-04-07 20:25:00,52.9,47.9,30.08,North,0,0.0,0.0,83,0.00,,,0.00,WUHU216HW,2013-04-08 03:25:00,
2013-04-07 20:30:00,52.9,47.9,30.08,North,0,0.0,0.0,83,0.00,,,0.00,WUHU216HW,2013-04-08 03:30:00,
2013-04-07 20:35:00,52.9,47.9,30.08,North,0,0.0,0.0,83,0.00,,,0.00,WUHU216HW,2013-04-08 03:35:00,
2013-04-07 20:40:00,52.9,47.9,30.08,North,0,0.0,0.0,83,0.00,,,0.00,WUHU216HW,2013-04-08 03:40:00,
2013-04-07 20:45:00,52.9,47.9,30.08,North,0,0.0,0.0,83,0.00,,,0.00,WUHU216HW,2013-04-08 03:45:00,
2013-04-07 20:50:00,52.9,47.6,30.08,North,0,0.0,0.0,82,0.00,,,0.00,WUHU216HW,2013-04-08 03:50:00,
2013-04-07 20:55:00,52.9,47.6,30.08,North,0,0.0,0.0,82,0.00,,,0.00,WUHU216HW,2013-04-08 03:55:00,
2013-04-07 21:00:00,52.9,47.6,30.08,North,0,0.0,0.0,82,0.00,,,0.00,WUHU216HW,2013-04-08 04:00:00,
2013-04-07 21:05:00,52.9,47.6,30.08,North,0,0.0,0.0,82,0.00,,,0.00,WUHU216HW,2013-04-08 04:05:00,
2013-04-07 21:10:00,52.9,47.9,30.08,North,0,0.0,0.0,83,0.00,,,0.00,WUHU216HW,2013-04-08 04:10:00,
2013-04-07 21:15:00,52.9,47.9,30.08,North,0,0.0,0.0,83,0.00,,,0.00,WUHU216HW,2013-04-08 04:15:00,
2013-04-07 21:20:00,52.9,47.9,30.07,North,0,0.0,0.0,83,0.00,,,0.00,WUHU216HW,2013-04-08 04:20:00,
2013-04-07 21:25:00,52.9,47.9,30.07,North,0,0.0,0.0,83,0.00,,,0.00,WUHU216HW,2013-04-08 04:25:00,
2013-04-07 21:30:00,52.9,47.9,30.06,North,0,0.0,0.0,83,0.00,,,0.00,WUHU216HW,2013-04-08 04:30:00,
2013-04-07 21:35:00,52.9,47.9,30.06,North,0,0.0,0.0,83,0.00,,,0.00,WUHU216HW,2013-04-08 04:35:00,
2013-04-07 21:40:00,52.7,48.1,30.07,North,0,0.0,0.0,84,0.00,,,0.00,WUHU216HW,2013-04-08 04:40:00,
2013-04-07 21:45:00,52.7,48.1,30.07,North,0,0.0,0.0,84,0.00,,,0.00,WUHU216HW,2013-04-08 04:45:00,
2013-04-07 21:50:00,52.7,48.1,30.06,North,0,0.0,0.0,84,0.00,,,0.00,WUHU216HW,2013-04-08 04:50:00,
2013-04-07 21:55:00,52.7,48.1,30.06,North,0,0.0,0.0,84,0.00,,,0.00,WUHU216HW,2013-04-08 04:55:00,
2013-04-07 22:00:00,52.7,48.1,30.06,North,0,0.0,0.0,84,0.00,,,0.00,WUHU216HW,2013-04-08 05:00:00,
2013-04-07 22:05:00,52.7,48.1,30.07,North,0,0.0,0.0,84,0.00,,,0.00,WUHU216HW,2013-04-08 05:05:00,
2013-04-07 22:10:00,52.7,47.7,30.07,North,0,0.0,0.0,83,0.00,,,0.00,WUHU216HW,2013-04-08 05:10:00,
2013-04-07 22:15:00,52.7,47.7,30.07,North,0,0.0,0.0,83,0.00,,,0.00,WUHU216HW,2013-04-08 05:15:00,
2013-04-07 22:20:00,52.7,48.1,30.07,North,0,0.0,0.0,84,0.00,,,0.00,WUHU216HW,2013-04-08 05:20:00,
2013-04-07 22:25:00,52.6,47.9,30.08,North,0,0.0,0.0,84,0.00,,,0.00,WUHU216HW,2013-04-08 05:25:00,
2013-04-07 22:30:00,52.4,48.0,30.07,North,0,0.0,0.0,85,0.00,,,0.00,WUHU216HW,2013-04-08 05:30:00,
2013-04-07 22:35:00,52.2,48.1,30.07,North,0,0.0,0.0,86,0.00,,,0.00,WUHU216HW,2013-04-08 05:35:00,
2013-04-07 22:40:00,51.8,48.1,30.06,North,0,0.0,0.0,87,0.00,,,0.00,WUHU216HW,2013-04-08 05:40:00,
2013-04-07 22:45:00,51.7,47.5,30.05,North,0,0.0,0.0,86,0.00,,,0.00,WUHU216HW,2013-04-08 05:45:00,
2013-04-07 22:50:00,51.7,47.9,30.05,North,0,0.0,0.0,87,0.00,,,0.00,WUHU216HW,2013-04-08 05:50:00,
2013-04-07 22:55:00,51.5,48.0,30.05,North,0,0.0,0.0,88,0.00,,,0.00,WUHU216HW,2013-04-08 05:55:00,
2013-04-07 23:00:00,51.5,48.3,30.05,North,0,0.0,0.0,89,0.00,,,0.00,WUHU216HW,2013-04-08 06:00:00,
2013-04-07 23:05:00,51.5,48.3,30.04,North,0,0.0,0.0,89,0.00,,,0.00,WUHU216HW,2013-04-08 06:05:00,
2013-04-07 23:10:00,51.5,48.3,30.04,North,0,0.0,0.0,89,0.00,,,0.00,WUHU216HW,2013-04-08 06:10:00,
2013-04-07 23:15:00,51.5,48.6,30.03,North,0,0.0,0.0,90,0.00,,,0.00,WUHU216HW,2013-04-08 06:15:00,
2013-04-07 23:20:00,51.5,48.3,30.03,North,0,0.0,0.0,89,0.00,,,0.00,WUHU216HW,2013-04-08 06:20:00,
2013-04-07 23:25:00,51.5,48.6,30.03,North,0,0.0,0.0,90,0.00,,,0.00,WUHU216HW,2013-04-08 06:25:00,
2013-04-07 23:30:00,51.5,48.6,30.03,North,0,0.0,0.0,90,0.00,,,0.00,WUHU216HW,2013-04-08 06:30:00,
2013-04-07 23:36:00,51.3,48.7,30.02,North,0,0.0,0.0,91,0.00,,,0.00,WUHU216HW,2013-04-08 06:36:00,
2013-04-07 23:41:00,51.3,49.0,30.01,North,0,0.0,0.0,92,0.00,,,0.00,WUHU216HW,2013-04-08 06:41:00,
2013-04-07 23:46:00,51.1,48.8,30.01,North,0,0.0,0.0,92,0.00,,,0.00,WUHU216HW,2013-04-08 06:46:00,
2013-04-07 23:51:00,51.1,49.2,30.00,North,0,0.0,0.0,93,0.00,,,0.00,WUHU216HW,2013-04-08 06:51:00,
2013-04-07 23:56:00,51.3,49.6,30.00,North,0,0.0,0.0,94,0.01,,,0.00,WUHU216HW,2013-04-08 06:56:00,